sensor_id;sensor_type;location;lat;lon;timestamp;P1;durP1;ratioP1;P2;durP2;ratioP2
72369;SDS011;60343;-32.030;115.880;2023-07-09T00:02:27;1.85;;;0.50;;
72369;SDS011;60343;-32.030;115.880;2023-07-09T00:05:08;2.22;;;0.60;;
72369;SDS011;60343;-32.030;115.880;2023-07-09T00:07:46;1.55;;;0.60;;
72369;SDS011;60343;-32.030;115.880;2023-07-09T00:10:21;1.30;;;0.50;;
72369;SDS011;60343;-32.030;115.880;2023-07-09T00:12:56;3.10;;;0.40;;
72369;SDS011;60343;-32.030;115.880;2023-07-09T00:18:37;2.20;;;0.50;;
72369;SDS011;60343;-32.030;115.880;2023-07-09T00:21:21;2.25;;;0.60;;
72369;SDS011;60343;-32.030;115.880;2023-07-09T00:24:00;3.58;;;0.50;;
72369;SDS011;60343;-32.030;115.880;2023-07-09T00:26:36;2.00;;;0.47;;
72369;SDS011;60343;-32.030;115.880;2023-07-09T00:29:15;2.45;;;0.55;;
72369;SDS011;60343;-32.030;115.880;2023-07-09T00:31:50;2.78;;;0.50;;
72369;SDS011;60343;-32.030;115.880;2023-07-09T00:34:32;1.55;;;0.45;;
72369;SDS011;60343;-32.030;115.880;2023-07-09T00:37:15;1.65;;;0.40;;
72369;SDS011;60343;-32.030;115.880;2023-07-09T00:39:52;1.52;;;0.45;;
72369;SDS011;60343;-32.030;115.880;2023-07-09T00:42:27;1.58;;;0.45;;
72369;SDS011;60343;-32.030;115.880;2023-07-09T00:45:07;3.92;;;0.45;;
72369;SDS011;60343;-32.030;115.880;2023-07-09T00:47:53;4.32;;;0.55;;
72369;SDS011;60343;-32.030;115.880;2023-07-09T00:50:34;1.40;;;0.40;;
72369;SDS011;60343;-32.030;115.880;2023-07-09T00:53:20;1.83;;;0.40;;
72369;SDS011;60343;-32.030;115.880;2023-07-09T00:56:02;1.65;;;0.45;;
72369;SDS011;60343;-32.030;115.880;2023-07-09T00:58:41;2.45;;;0.50;;
72369;SDS011;60343;-32.030;115.880;2023-07-09T01:01:18;1.80;;;0.50;;
72369;SDS011;60343;-32.030;115.880;2023-07-09T01:03:54;6.32;;;0.60;;
72369;SDS011;60343;-32.030;115.880;2023-07-09T01:06:34;2.20;;;0.43;;
72369;SDS011;60343;-32.030;115.880;2023-07-09T01:09:18;1.25;;;0.35;;
72369;SDS011;60343;-32.030;115.880;2023-07-09T01:11:54;4.30;;;0.60;;
72369;SDS011;60343;-32.030;115.880;2023-07-09T01:14:31;2.33;;;0.60;;
72369;SDS011;60343;-32.030;115.880;2023-07-09T01:17:07;2.28;;;0.40;;
72369;SDS011;60343;-32.030;115.880;2023-07-09T01:19:47;2.08;;;0.70;;
72369;SDS011;60343;-32.030;115.880;2023-07-09T01:22:30;3.08;;;0.60;;
72369;SDS011;60343;-32.030;115.880;2023-07-09T01:25:06;2.10;;;0.43;;
72369;SDS011;60343;-32.030;115.880;2023-07-09T01:27:42;1.73;;;0.50;;
72369;SDS011;60343;-32.030;115.880;2023-07-09T01:30:20;1.95;;;0.52;;
72369;SDS011;60343;-32.030;115.880;2023-07-09T01:32:58;2.50;;;0.52;;
72369;SDS011;60343;-32.030;115.880;2023-07-09T01:35:36;2.80;;;0.50;;
72369;SDS011;60343;-32.030;115.880;2023-07-09T01:38:19;2.05;;;0.50;;
72369;SDS011;60343;-32.030;115.880;2023-07-09T01:40:56;1.85;;;0.65;;
72369;SDS011;60343;-32.030;115.880;2023-07-09T01:43:32;2.20;;;0.50;;
72369;SDS011;60343;-32.030;115.880;2023-07-09T01:46:08;1.83;;;0.60;;
72369;SDS011;60343;-32.030;115.880;2023-07-09T01:48:44;6.03;;;1.23;;
72369;SDS011;60343;-32.030;115.880;2023-07-09T01:51:19;2.72;;;0.60;;
72369;SDS011;60343;-32.030;115.880;2023-07-09T01:54:01;3.63;;;0.57;;
72369;SDS011;60343;-32.030;115.880;2023-07-09T01:56:37;1.73;;;0.50;;
72369;SDS011;60343;-32.030;115.880;2023-07-09T01:59:12;4.63;;;0.60;;
72369;SDS011;60343;-32.030;115.880;2023-07-09T02:01:47;2.08;;;0.63;;
72369;SDS011;60343;-32.030;115.880;2023-07-09T02:04:24;1.77;;;0.50;;
72369;SDS011;60343;-32.030;115.880;2023-07-09T02:06:59;3.35;;;0.70;;
72369;SDS011;60343;-32.030;115.880;2023-07-09T02:09:40;1.85;;;0.50;;
72369;SDS011;60343;-32.030;115.880;2023-07-09T02:12:16;4.80;;;0.80;;
72369;SDS011;60343;-32.030;115.880;2023-07-09T02:14:52;3.50;;;0.50;;
72369;SDS011;60343;-32.030;115.880;2023-07-09T02:17:27;3.15;;;0.57;;
72369;SDS011;60343;-32.030;115.880;2023-07-09T02:20:03;1.77;;;0.60;;
72369;SDS011;60343;-32.030;115.880;2023-07-09T02:22:39;4.45;;;0.70;;
72369;SDS011;60343;-32.030;115.880;2023-07-09T02:25:21;3.38;;;0.75;;
72369;SDS011;60343;-32.030;115.880;2023-07-09T02:27:56;2.55;;;0.50;;
72369;SDS011;60343;-32.030;115.880;2023-07-09T02:30:32;2.45;;;0.60;;
72369;SDS011;60343;-32.030;115.880;2023-07-09T02:33:07;1.13;;;0.40;;
72369;SDS011;60343;-32.030;115.880;2023-07-09T02:35:42;1.85;;;0.52;;
72369;SDS011;60343;-32.030;115.880;2023-07-09T02:38:18;2.10;;;0.50;;
72369;SDS011;60343;-32.030;115.880;2023-07-09T02:40:59;2.85;;;0.50;;
72369;SDS011;60343;-32.030;115.880;2023-07-09T02:43:34;1.48;;;0.50;;
72369;SDS011;60343;-32.030;115.880;2023-07-09T02:46:09;5.57;;;0.60;;
72369;SDS011;60343;-32.030;115.880;2023-07-09T02:48:45;3.28;;;0.70;;
72369;SDS011;60343;-32.030;115.880;2023-07-09T02:51:20;3.45;;;0.73;;
72369;SDS011;60343;-32.030;115.880;2023-07-09T02:53:56;5.95;;;0.90;;
72369;SDS011;60343;-32.030;115.880;2023-07-09T02:56:39;1.70;;;0.50;;
72369;SDS011;60343;-32.030;115.880;2023-07-09T02:59:14;2.10;;;0.70;;
72369;SDS011;60343;-32.030;115.880;2023-07-09T03:01:50;2.83;;;0.80;;
72369;SDS011;60343;-32.030;115.880;2023-07-09T03:04:25;4.07;;;1.02;;
72369;SDS011;60343;-32.030;115.880;2023-07-09T03:07:00;5.20;;;0.90;;
72369;SDS011;60343;-32.030;115.880;2023-07-09T03:09:36;1.52;;;0.60;;
72369;SDS011;60343;-32.030;115.880;2023-07-09T03:12:17;3.00;;;0.75;;
72369;SDS011;60343;-32.030;115.880;2023-07-09T03:14:52;2.33;;;0.75;;
72369;SDS011;60343;-32.030;115.880;2023-07-09T03:17:28;3.20;;;0.90;;
72369;SDS011;60343;-32.030;115.880;2023-07-09T03:20:03;3.55;;;0.77;;
72369;SDS011;60343;-32.030;115.880;2023-07-09T03:22:39;2.20;;;0.60;;
72369;SDS011;60343;-32.030;115.880;2023-07-09T03:25:15;3.00;;;0.82;;
72369;SDS011;60343;-32.030;115.880;2023-07-09T03:27:56;3.05;;;0.80;;
72369;SDS011;60343;-32.030;115.880;2023-07-09T03:30:31;3.42;;;0.90;;
72369;SDS011;60343;-32.030;115.880;2023-07-09T03:33:07;4.65;;;0.90;;
72369;SDS011;60343;-32.030;115.880;2023-07-09T03:35:42;2.97;;;0.68;;
72369;SDS011;60343;-32.030;115.880;2023-07-09T03:38:18;2.92;;;0.80;;
72369;SDS011;60343;-32.030;115.880;2023-07-09T03:40:54;2.72;;;0.70;;
72369;SDS011;60343;-32.030;115.880;2023-07-09T03:43:35;3.05;;;0.63;;
72369;SDS011;60343;-32.030;115.880;2023-07-09T03:46:10;3.63;;;0.63;;
72369;SDS011;60343;-32.030;115.880;2023-07-09T03:48:45;3.88;;;0.52;;
72369;SDS011;60343;-32.030;115.880;2023-07-09T03:51:21;1.92;;;0.50;;
72369;SDS011;60343;-32.030;115.880;2023-07-09T03:53:56;2.47;;;0.50;;
72369;SDS011;60343;-32.030;115.880;2023-07-09T03:56:32;2.63;;;0.40;;
72369;SDS011;60343;-32.030;115.880;2023-07-09T03:59:13;1.85;;;0.40;;
72369;SDS011;60343;-32.030;115.880;2023-07-09T04:01:48;2.38;;;0.30;;
72369;SDS011;60343;-32.030;115.880;2023-07-09T04:04:23;2.78;;;0.30;;
72369;SDS011;60343;-32.030;115.880;2023-07-09T04:06:59;2.50;;;0.50;;
72369;SDS011;60343;-32.030;115.880;2023-07-09T04:09:34;2.17;;;0.40;;
72369;SDS011;60343;-32.030;115.880;2023-07-09T04:12:09;0.40;;;0.20;;
72369;SDS011;60343;-32.030;115.880;2023-07-09T04:14:51;3.40;;;0.45;;
72369;SDS011;60343;-32.030;115.880;2023-07-09T04:17:26;2.08;;;0.30;;
72369;SDS011;60343;-32.030;115.880;2023-07-09T04:20:33;1.25;;;0.30;;
72369;SDS011;60343;-32.030;115.880;2023-07-09T04:23:11;4.10;;;0.30;;
72369;SDS011;60343;-32.030;115.880;2023-07-09T04:25:46;1.55;;;0.30;;
72369;SDS011;60343;-32.030;115.880;2023-07-09T04:28:22;2.63;;;0.40;;
72369;SDS011;60343;-32.030;115.880;2023-07-09T04:31:04;1.70;;;0.30;;
72369;SDS011;60343;-32.030;115.880;2023-07-09T04:33:40;1.77;;;0.30;;
72369;SDS011;60343;-32.030;115.880;2023-07-09T04:36:16;1.10;;;0.20;;
72369;SDS011;60343;-32.030;115.880;2023-07-09T04:38:52;1.13;;;0.10;;
72369;SDS011;60343;-32.030;115.880;2023-07-09T04:41:27;1.42;;;0.30;;
72369;SDS011;60343;-32.030;115.880;2023-07-09T04:44:02;2.63;;;0.30;;
72369;SDS011;60343;-32.030;115.880;2023-07-09T04:46:44;1.98;;;0.20;;
72369;SDS011;60343;-32.030;115.880;2023-07-09T04:49:19;4.20;;;0.40;;
72369;SDS011;60343;-32.030;115.880;2023-07-09T04:51:54;2.08;;;0.40;;
72369;SDS011;60343;-32.030;115.880;2023-07-09T04:54:29;2.28;;;0.47;;
72369;SDS011;60343;-32.030;115.880;2023-07-09T04:57:05;4.90;;;0.77;;
72369;SDS011;60343;-32.030;115.880;2023-07-09T04:59:40;1.48;;;0.30;;
72369;SDS011;60343;-32.030;115.880;2023-07-09T05:02:22;2.28;;;0.50;;
72369;SDS011;60343;-32.030;115.880;2023-07-09T05:04:57;1.45;;;0.30;;
72369;SDS011;60343;-32.030;115.880;2023-07-09T05:07:33;2.53;;;0.30;;
72369;SDS011;60343;-32.030;115.880;2023-07-09T05:10:09;1.55;;;0.40;;
72369;SDS011;60343;-32.030;115.880;2023-07-09T05:12:48;2.22;;;0.43;;
72369;SDS011;60343;-32.030;115.880;2023-07-09T05:15:24;3.38;;;0.50;;
72369;SDS011;60343;-32.030;115.880;2023-07-09T05:18:05;2.03;;;0.43;;
72369;SDS011;60343;-32.030;115.880;2023-07-09T05:20:40;5.13;;;0.45;;
72369;SDS011;60343;-32.030;115.880;2023-07-09T05:23:16;2.28;;;0.40;;
72369;SDS011;60343;-32.030;115.880;2023-07-09T05:25:55;1.83;;;0.40;;
72369;SDS011;60343;-32.030;115.880;2023-07-09T05:28:31;1.98;;;0.30;;
72369;SDS011;60343;-32.030;115.880;2023-07-09T05:31:06;3.17;;;0.60;;
72369;SDS011;60343;-32.030;115.880;2023-07-09T05:33:48;1.92;;;0.43;;
72369;SDS011;60343;-32.030;115.880;2023-07-09T05:36:23;5.05;;;0.32;;
72369;SDS011;60343;-32.030;115.880;2023-07-09T05:38:59;1.50;;;0.20;;
72369;SDS011;60343;-32.030;115.880;2023-07-09T05:41:34;7.90;;;0.50;;
72369;SDS011;60343;-32.030;115.880;2023-07-09T05:44:09;1.83;;;0.30;;
72369;SDS011;60343;-32.030;115.880;2023-07-09T05:46:45;1.45;;;0.30;;
72369;SDS011;60343;-32.030;115.880;2023-07-09T05:49:26;1.10;;;0.20;;
72369;SDS011;60343;-32.030;115.880;2023-07-09T05:52:01;2.45;;;0.57;;
72369;SDS011;60343;-32.030;115.880;2023-07-09T05:54:37;2.58;;;0.30;;
72369;SDS011;60343;-32.030;115.880;2023-07-09T05:57:12;4.78;;;0.40;;
72369;SDS011;60343;-32.030;115.880;2023-07-09T05:59:47;3.60;;;0.47;;
72369;SDS011;60343;-32.030;115.880;2023-07-09T06:02:22;2.60;;;0.35;;
72369;SDS011;60343;-32.030;115.880;2023-07-09T06:05:04;1.63;;;0.25;;
72369;SDS011;60343;-32.030;115.880;2023-07-09T06:07:40;3.33;;;0.40;;
72369;SDS011;60343;-32.030;115.880;2023-07-09T06:10:15;3.00;;;0.40;;
72369;SDS011;60343;-32.030;115.880;2023-07-09T06:12:51;3.45;;;0.30;;
72369;SDS011;60343;-32.030;115.880;2023-07-09T06:15:26;2.42;;;0.30;;
72369;SDS011;60343;-32.030;115.880;2023-07-09T06:18:01;1.00;;;0.28;;
72369;SDS011;60343;-32.030;115.880;2023-07-09T06:20:45;1.27;;;0.30;;
72369;SDS011;60343;-32.030;115.880;2023-07-09T06:23:21;3.35;;;0.30;;
72369;SDS011;60343;-32.030;115.880;2023-07-09T06:25:57;2.28;;;0.40;;
72369;SDS011;60343;-32.030;115.880;2023-07-09T06:28:32;1.65;;;0.30;;
72369;SDS011;60343;-32.030;115.880;2023-07-09T06:31:08;4.18;;;0.40;;
72369;SDS011;60343;-32.030;115.880;2023-07-09T06:33:43;2.53;;;0.40;;
72369;SDS011;60343;-32.030;115.880;2023-07-09T06:36:24;5.22;;;0.47;;
72369;SDS011;60343;-32.030;115.880;2023-07-09T06:38:59;3.10;;;0.50;;
72369;SDS011;60343;-32.030;115.880;2023-07-09T06:41:35;3.33;;;0.30;;
72369;SDS011;60343;-32.030;115.880;2023-07-09T06:44:11;3.53;;;0.90;;
72369;SDS011;60343;-32.030;115.880;2023-07-09T06:46:46;4.93;;;0.55;;
72369;SDS011;60343;-32.030;115.880;2023-07-09T06:49:22;2.13;;;0.30;;
72369;SDS011;60343;-32.030;115.880;2023-07-09T06:52:03;2.50;;;0.30;;
72369;SDS011;60343;-32.030;115.880;2023-07-09T06:54:39;3.60;;;0.30;;
72369;SDS011;60343;-32.030;115.880;2023-07-09T06:57:15;2.50;;;0.40;;
72369;SDS011;60343;-32.030;115.880;2023-07-09T06:59:50;2.00;;;0.25;;
72369;SDS011;60343;-32.030;115.880;2023-07-09T07:02:25;0.88;;;0.20;;
72369;SDS011;60343;-32.030;115.880;2023-07-09T07:05:01;2.17;;;0.30;;
72369;SDS011;60343;-32.030;115.880;2023-07-09T07:07:42;4.28;;;0.68;;
72369;SDS011;60343;-32.030;115.880;2023-07-09T07:10:17;3.20;;;0.20;;
72369;SDS011;60343;-32.030;115.880;2023-07-09T07:12:53;3.25;;;0.40;;
72369;SDS011;60343;-32.030;115.880;2023-07-09T07:15:29;1.58;;;0.25;;
72369;SDS011;60343;-32.030;115.880;2023-07-09T07:18:04;1.27;;;0.15;;
72369;SDS011;60343;-32.030;115.880;2023-07-09T07:20:40;1.40;;;0.30;;
72369;SDS011;60343;-32.030;115.880;2023-07-09T07:23:22;3.28;;;0.32;;
72369;SDS011;60343;-32.030;115.880;2023-07-09T07:25:57;3.78;;;0.35;;
72369;SDS011;60343;-32.030;115.880;2023-07-09T07:28:34;2.35;;;0.30;;
72369;SDS011;60343;-32.030;115.880;2023-07-09T07:31:09;3.33;;;0.40;;
72369;SDS011;60343;-32.030;115.880;2023-07-09T07:33:44;2.67;;;0.40;;
72369;SDS011;60343;-32.030;115.880;2023-07-09T07:36:20;2.53;;;0.20;;
72369;SDS011;60343;-32.030;115.880;2023-07-09T07:39:01;2.00;;;0.20;;
72369;SDS011;60343;-32.030;115.880;2023-07-09T07:41:36;3.13;;;0.30;;
72369;SDS011;60343;-32.030;115.880;2023-07-09T07:44:11;1.98;;;0.30;;
72369;SDS011;60343;-32.030;115.880;2023-07-09T07:46:47;1.67;;;0.30;;
72369;SDS011;60343;-32.030;115.880;2023-07-09T07:49:22;2.33;;;0.28;;
72369;SDS011;60343;-32.030;115.880;2023-07-09T07:51:58;3.47;;;0.38;;
72369;SDS011;60343;-32.030;115.880;2023-07-09T07:54:42;3.35;;;0.40;;
72369;SDS011;60343;-32.030;115.880;2023-07-09T07:57:18;3.70;;;0.35;;
72369;SDS011;60343;-32.030;115.880;2023-07-09T07:59:55;5.47;;;0.80;;
72369;SDS011;60343;-32.030;115.880;2023-07-09T08:02:30;1.95;;;0.43;;
72369;SDS011;60343;-32.030;115.880;2023-07-09T08:05:06;2.75;;;0.45;;
72369;SDS011;60343;-32.030;115.880;2023-07-09T08:07:41;3.47;;;0.32;;
72369;SDS011;60343;-32.030;115.880;2023-07-09T08:10:22;6.30;;;0.50;;
72369;SDS011;60343;-32.030;115.880;2023-07-09T08:12:58;2.35;;;0.20;;
72369;SDS011;60343;-32.030;115.880;2023-07-09T08:15:33;1.02;;;0.20;;
72369;SDS011;60343;-32.030;115.880;2023-07-09T08:18:12;1.92;;;0.30;;
72369;SDS011;60343;-32.030;115.880;2023-07-09T08:20:47;1.00;;;0.20;;
72369;SDS011;60343;-32.030;115.880;2023-07-09T08:23:22;2.70;;;0.32;;
72369;SDS011;60343;-32.030;115.880;2023-07-09T08:26:03;3.22;;;0.35;;
72369;SDS011;60343;-32.030;115.880;2023-07-09T08:28:39;0.95;;;0.20;;
72369;SDS011;60343;-32.030;115.880;2023-07-09T08:31:14;1.08;;;0.20;;
72369;SDS011;60343;-32.030;115.880;2023-07-09T08:33:49;3.90;;;0.40;;
72369;SDS011;60343;-32.030;115.880;2023-07-09T08:36:25;2.83;;;0.40;;
72369;SDS011;60343;-32.030;115.880;2023-07-09T08:39:01;3.03;;;0.43;;
72369;SDS011;60343;-32.030;115.880;2023-07-09T08:41:45;1.13;;;0.20;;
72369;SDS011;60343;-32.030;115.880;2023-07-09T08:44:35;1.63;;;0.30;;
72369;SDS011;60343;-32.030;115.880;2023-07-09T08:47:31;0.77;;;0.25;;
72369;SDS011;60343;-32.030;115.880;2023-07-09T08:50:14;3.42;;;0.30;;
72369;SDS011;60343;-32.030;115.880;2023-07-09T08:52:52;2.30;;;0.28;;
72369;SDS011;60343;-32.030;115.880;2023-07-09T08:55:29;0.73;;;0.15;;
72369;SDS011;60343;-32.030;115.880;2023-07-09T08:58:17;1.38;;;0.25;;
72369;SDS011;60343;-32.030;115.880;2023-07-09T09:00:57;3.55;;;0.25;;
72369;SDS011;60343;-32.030;115.880;2023-07-09T09:03:35;1.17;;;0.20;;
72369;SDS011;60343;-32.030;115.880;2023-07-09T09:06:16;4.18;;;0.28;;
72369;SDS011;60343;-32.030;115.880;2023-07-09T09:08:58;3.08;;;0.30;;
72369;SDS011;60343;-32.030;115.880;2023-07-09T09:11:42;2.05;;;0.20;;
72369;SDS011;60343;-32.030;115.880;2023-07-09T09:14:33;2.42;;;0.20;;
72369;SDS011;60343;-32.030;115.880;2023-07-09T09:17:11;1.00;;;0.40;;
72369;SDS011;60343;-32.030;115.880;2023-07-09T09:19:51;1.83;;;0.20;;
72369;SDS011;60343;-32.030;115.880;2023-07-09T09:22:33;4.03;;;0.40;;
72369;SDS011;60343;-32.030;115.880;2023-07-09T09:25:18;1.60;;;0.30;;
72369;SDS011;60343;-32.030;115.880;2023-07-09T09:28:00;0.88;;;0.25;;
72369;SDS011;60343;-32.030;115.880;2023-07-09T09:30:42;0.75;;;0.20;;
72369;SDS011;60343;-32.030;115.880;2023-07-09T09:33:17;2.10;;;0.20;;
72369;SDS011;60343;-32.030;115.880;2023-07-09T09:36:00;1.00;;;0.28;;
72369;SDS011;60343;-32.030;115.880;2023-07-09T09:38:36;4.80;;;0.50;;
72369;SDS011;60343;-32.030;115.880;2023-07-09T09:41:15;1.98;;;0.30;;
72369;SDS011;60343;-32.030;115.880;2023-07-09T09:43:52;2.85;;;0.32;;
72369;SDS011;60343;-32.030;115.880;2023-07-09T09:46:36;3.88;;;0.40;;
72369;SDS011;60343;-32.030;115.880;2023-07-09T09:49:12;2.55;;;0.40;;
72369;SDS011;60343;-32.030;115.880;2023-07-09T09:51:47;3.85;;;0.45;;
72369;SDS011;60343;-32.030;115.880;2023-07-09T09:54:26;2.70;;;0.50;;
72369;SDS011;60343;-32.030;115.880;2023-07-09T09:57:02;3.45;;;0.68;;
72369;SDS011;60343;-32.030;115.880;2023-07-09T09:59:38;2.88;;;0.80;;
72369;SDS011;60343;-32.030;115.880;2023-07-09T10:02:21;1.25;;;0.50;;
72369;SDS011;60343;-32.030;115.880;2023-07-09T10:04:57;7.05;;;0.90;;
72369;SDS011;60343;-32.030;115.880;2023-07-09T10:07:34;3.97;;;0.70;;
72369;SDS011;60343;-32.030;115.880;2023-07-09T10:10:13;7.53;;;1.50;;
72369;SDS011;60343;-32.030;115.880;2023-07-09T10:12:55;3.33;;;0.57;;
72369;SDS011;60343;-32.030;115.880;2023-07-09T10:15:38;2.90;;;0.75;;
72369;SDS011;60343;-32.030;115.880;2023-07-09T10:18:26;2.15;;;0.50;;
72369;SDS011;60343;-32.030;115.880;2023-07-09T10:21:10;4.43;;;0.50;;
72369;SDS011;60343;-32.030;115.880;2023-07-09T10:23:53;2.30;;;0.50;;
72369;SDS011;60343;-32.030;115.880;2023-07-09T10:26:38;2.30;;;0.47;;
72369;SDS011;60343;-32.030;115.880;2023-07-09T10:29:25;3.72;;;0.35;;
72369;SDS011;60343;-32.030;115.880;2023-07-09T10:32:17;1.33;;;0.40;;
72369;SDS011;60343;-32.030;115.880;2023-07-09T10:35:05;2.58;;;0.60;;
72369;SDS011;60343;-32.030;115.880;2023-07-09T10:37:54;3.45;;;0.70;;
72369;SDS011;60343;-32.030;115.880;2023-07-09T10:40:41;5.40;;;0.88;;
72369;SDS011;60343;-32.030;115.880;2023-07-09T10:43:23;3.42;;;0.93;;
72369;SDS011;60343;-32.030;115.880;2023-07-09T10:46:05;3.45;;;0.57;;
72369;SDS011;60343;-32.030;115.880;2023-07-09T10:48:47;5.30;;;0.50;;
72369;SDS011;60343;-32.030;115.880;2023-07-09T10:51:32;2.53;;;0.38;;
72369;SDS011;60343;-32.030;115.880;2023-07-09T10:54:14;3.00;;;0.52;;
72369;SDS011;60343;-32.030;115.880;2023-07-09T10:56:56;4.88;;;0.65;;
72369;SDS011;60343;-32.030;115.880;2023-07-09T10:59:37;3.40;;;0.60;;
72369;SDS011;60343;-32.030;115.880;2023-07-09T11:02:18;3.80;;;0.43;;
72369;SDS011;60343;-32.030;115.880;2023-07-09T11:04:58;1.90;;;0.50;;
72369;SDS011;60343;-32.030;115.880;2023-07-09T11:07:40;4.13;;;0.50;;
72369;SDS011;60343;-32.030;115.880;2023-07-09T11:10:22;1.75;;;0.60;;
72369;SDS011;60343;-32.030;115.880;2023-07-09T11:13:01;3.38;;;0.60;;
72369;SDS011;60343;-32.030;115.880;2023-07-09T11:15:39;3.40;;;0.60;;
72369;SDS011;60343;-32.030;115.880;2023-07-09T11:18:20;3.40;;;0.50;;
72369;SDS011;60343;-32.030;115.880;2023-07-09T11:20:59;2.67;;;0.60;;
72369;SDS011;60343;-32.030;115.880;2023-07-09T11:23:45;2.10;;;0.52;;
72369;SDS011;60343;-32.030;115.880;2023-07-09T11:26:23;4.55;;;0.70;;
72369;SDS011;60343;-32.030;115.880;2023-07-09T11:29:12;4.70;;;0.73;;
72369;SDS011;60343;-32.030;115.880;2023-07-09T11:31:50;3.88;;;0.60;;
72369;SDS011;60343;-32.030;115.880;2023-07-09T11:34:27;5.07;;;0.57;;
72369;SDS011;60343;-32.030;115.880;2023-07-09T11:37:08;1.73;;;0.40;;
72369;SDS011;60343;-32.030;115.880;2023-07-09T11:39:52;3.10;;;0.52;;
72369;SDS011;60343;-32.030;115.880;2023-07-09T11:42:29;4.10;;;0.57;;
72369;SDS011;60343;-32.030;115.880;2023-07-09T11:45:07;4.00;;;0.50;;
72369;SDS011;60343;-32.030;115.880;2023-07-09T11:47:46;1.73;;;0.40;;
72369;SDS011;60343;-32.030;115.880;2023-07-09T11:50:27;3.17;;;0.45;;
72369;SDS011;60343;-32.030;115.880;2023-07-09T11:53:11;2.58;;;0.30;;
72369;SDS011;60343;-32.030;115.880;2023-07-09T11:56:07;2.83;;;0.20;;
72369;SDS011;60343;-32.030;115.880;2023-07-09T11:58:49;1.98;;;0.38;;
72369;SDS011;60343;-32.030;115.880;2023-07-09T12:01:26;1.75;;;0.30;;
72369;SDS011;60343;-32.030;115.880;2023-07-09T12:04:05;1.08;;;0.40;;
72369;SDS011;60343;-32.030;115.880;2023-07-09T12:06:45;1.63;;;0.30;;
72369;SDS011;60343;-32.030;115.880;2023-07-09T12:09:21;0.82;;;0.30;;
72369;SDS011;60343;-32.030;115.880;2023-07-09T12:12:03;0.98;;;0.30;;
72369;SDS011;60343;-32.030;115.880;2023-07-09T12:14:50;3.03;;;0.40;;
72369;SDS011;60343;-32.030;115.880;2023-07-09T12:17:26;2.17;;;0.38;;
72369;SDS011;60343;-32.030;115.880;2023-07-09T12:20:02;3.97;;;0.98;;
72369;SDS011;60343;-32.030;115.880;2023-07-09T12:22:39;1.23;;;0.25;;
72369;SDS011;60343;-32.030;115.880;2023-07-09T12:25:19;2.47;;;0.50;;
72369;SDS011;60343;-32.030;115.880;2023-07-09T12:28:04;1.70;;;0.40;;
72369;SDS011;60343;-32.030;115.880;2023-07-09T12:30:46;3.20;;;0.70;;
72369;SDS011;60343;-32.030;115.880;2023-07-09T12:33:23;3.80;;;0.70;;
72369;SDS011;60343;-32.030;115.880;2023-07-09T12:36:01;2.08;;;0.88;;
72369;SDS011;60343;-32.030;115.880;2023-07-09T12:38:40;5.53;;;1.38;;
72369;SDS011;60343;-32.030;115.880;2023-07-09T12:41:18;3.13;;;1.05;;
72369;SDS011;60343;-32.030;115.880;2023-07-09T12:44:04;3.67;;;1.00;;
72369;SDS011;60343;-32.030;115.880;2023-07-09T12:46:39;3.80;;;0.77;;
72369;SDS011;60343;-32.030;115.880;2023-07-09T12:49:22;2.40;;;0.60;;
72369;SDS011;60343;-32.030;115.880;2023-07-09T12:52:00;2.88;;;0.90;;
72369;SDS011;60343;-32.030;115.880;2023-07-09T12:54:36;2.75;;;0.80;;
72369;SDS011;60343;-32.030;115.880;2023-07-09T12:57:13;2.75;;;0.90;;
72369;SDS011;60343;-32.030;115.880;2023-07-09T12:59:55;4.25;;;1.10;;
72369;SDS011;60343;-32.030;115.880;2023-07-09T13:02:37;4.28;;;1.00;;
72369;SDS011;60343;-32.030;115.880;2023-07-09T13:05:18;3.75;;;0.95;;
72369;SDS011;60343;-32.030;115.880;2023-07-09T13:07:57;2.53;;;0.80;;
72369;SDS011;60343;-32.030;115.880;2023-07-09T13:10:38;4.25;;;0.90;;
72369;SDS011;60343;-32.030;115.880;2023-07-09T13:13:18;2.95;;;0.90;;
72369;SDS011;60343;-32.030;115.880;2023-07-09T13:16:01;4.45;;;1.33;;
72369;SDS011;60343;-32.030;115.880;2023-07-09T13:18:36;4.78;;;1.35;;
72369;SDS011;60343;-32.030;115.880;2023-07-09T13:21:14;4.35;;;1.60;;
72369;SDS011;60343;-32.030;115.880;2023-07-09T13:23:52;2.85;;;1.17;;
72369;SDS011;60343;-32.030;115.880;2023-07-09T13:26:28;2.92;;;1.17;;
72369;SDS011;60343;-32.030;115.880;2023-07-09T13:29:04;2.45;;;1.00;;
72369;SDS011;60343;-32.030;115.880;2023-07-09T13:31:50;2.20;;;1.00;;
72369;SDS011;60343;-32.030;115.880;2023-07-09T13:34:26;5.47;;;0.93;;
72369;SDS011;60343;-32.030;115.880;2023-07-09T13:37:04;5.72;;;1.25;;
72369;SDS011;60343;-32.030;115.880;2023-07-09T13:39:43;3.63;;;0.95;;
72369;SDS011;60343;-32.030;115.880;2023-07-09T13:42:18;2.88;;;0.85;;
72369;SDS011;60343;-32.030;115.880;2023-07-09T13:44:53;3.80;;;0.80;;
72369;SDS011;60343;-32.030;115.880;2023-07-09T13:47:35;1.98;;;0.70;;
72369;SDS011;60343;-32.030;115.880;2023-07-09T13:50:10;2.65;;;0.90;;
72369;SDS011;60343;-32.030;115.880;2023-07-09T13:52:46;3.92;;;0.80;;
72369;SDS011;60343;-32.030;115.880;2023-07-09T13:55:22;5.20;;;1.02;;
72369;SDS011;60343;-32.030;115.880;2023-07-09T13:57:57;3.97;;;1.00;;
72369;SDS011;60343;-32.030;115.880;2023-07-09T14:00:33;3.55;;;1.00;;
72369;SDS011;60343;-32.030;115.880;2023-07-09T14:03:17;4.75;;;1.00;;
72369;SDS011;60343;-32.030;115.880;2023-07-09T14:05:54;4.20;;;1.10;;
72369;SDS011;60343;-32.030;115.880;2023-07-09T14:08:29;5.43;;;1.25;;
72369;SDS011;60343;-32.030;115.880;2023-07-09T14:11:08;3.53;;;0.90;;
72369;SDS011;60343;-32.030;115.880;2023-07-09T14:13:45;3.40;;;0.90;;
72369;SDS011;60343;-32.030;115.880;2023-07-09T14:16:21;2.42;;;0.90;;
72369;SDS011;60343;-32.030;115.880;2023-07-09T14:19:02;3.70;;;1.00;;
72369;SDS011;60343;-32.030;115.880;2023-07-09T14:21:42;5.35;;;1.25;;
72369;SDS011;60343;-32.030;115.880;2023-07-09T14:24:18;2.90;;;0.90;;
72369;SDS011;60343;-32.030;115.880;2023-07-09T14:26:56;3.20;;;0.82;;
72369;SDS011;60343;-32.030;115.880;2023-07-09T14:29:31;4.05;;;1.00;;
72369;SDS011;60343;-32.030;115.880;2023-07-09T14:32:31;3.78;;;1.60;;
72369;SDS011;60343;-32.030;115.880;2023-07-09T14:35:16;5.95;;;1.20;;
72369;SDS011;60343;-32.030;115.880;2023-07-09T14:37:53;6.85;;;1.65;;
72369;SDS011;60343;-32.030;115.880;2023-07-09T14:40:29;5.20;;;2.40;;
72369;SDS011;60343;-32.030;115.880;2023-07-09T14:43:07;9.00;;;3.58;;
72369;SDS011;60343;-32.030;115.880;2023-07-09T14:45:44;7.22;;;2.85;;
72369;SDS011;60343;-32.030;115.880;2023-07-09T14:48:21;5.75;;;2.25;;
72369;SDS011;60343;-32.030;115.880;2023-07-09T14:51:04;4.55;;;1.98;;
72369;SDS011;60343;-32.030;115.880;2023-07-09T14:53:48;3.75;;;1.58;;
72369;SDS011;60343;-32.030;115.880;2023-07-09T14:56:23;5.28;;;1.50;;
72369;SDS011;60343;-32.030;115.880;2023-07-09T14:58:59;3.75;;;0.80;;
72369;SDS011;60343;-32.030;115.880;2023-07-09T15:01:34;3.70;;;0.80;;
72369;SDS011;60343;-32.030;115.880;2023-07-09T15:04:20;1.45;;;0.68;;
72369;SDS011;60343;-32.030;115.880;2023-07-09T15:07:08;3.08;;;0.80;;
72369;SDS011;60343;-32.030;115.880;2023-07-09T15:09:43;4.13;;;0.90;;
72369;SDS011;60343;-32.030;115.880;2023-07-09T15:12:21;2.90;;;0.82;;
72369;SDS011;60343;-32.030;115.880;2023-07-09T15:15:01;3.33;;;0.82;;
72369;SDS011;60343;-32.030;115.880;2023-07-09T15:17:46;2.83;;;0.88;;